Ana Sayfa
METAR-TAF:

METAR-TAF

Havaalanları :

Padang, Endonezya

Enlem: 00-47-12S, Boylam: 100-16-50E, yükseklik: 5 m

METAR: eksik

Saat: 15:45 (08:45 UTC)

Tahmin

Rapor saat 05:00 UTC de 3 saat ve 45 dakika önce yapıldı.
Ayın 12'si saat 06 UTC'den ayın 13'si saat 06 UTC'ye kadar geçerli Tahmin
Rüzgar güney/güneybatıdan 6 kt
Görüş mesafesi 10 km veya daha fazla
2000 ft yükseklikte parçalı çok bulutlu
Geçici
ayın 12'si saat 08 UTC'den ayın 12'si saat 10 UTC'ye kadar
Rüzgar güneydan 10 kt
Görüş mesafesi: 3000 m
1800 ft yükseklikte parçalı çok bulutlu
yağmur
Dönüşüyor
ayın 12'si saat 13 UTC'den ayın 12'si saat 15 UTC'ye kadar
Rüzgar kuzey/kuzeydoğudan 2 kt

TAF: WIEE 120500Z 1206/1306 21006KT 9999 BKN020 TEMPO 1208/1210 18010KT 3000 RA BKN018 BECMG 1213/1215 02002KT

4.000'den fazla havaalanı için hava durumu gözlemleri ve tahminleri (METAR ve TAF raporları).

Kullanılabilir istasyonlar harita üzerinde sarı ve kırmızı noktalarla gösterilir.

İstasyonun adını görmek için fareyi noktanın üzerinde gezdirin.

Sonrasında hava gözlem ve tahminlerini görmek için tıklayın.

Haritayı değiştirmek için: yaklaştırmak için siyah artı işaretli yeşil düğmeye ve uzaklaştırmak için de eksi işaretli düğmeye hızla tıklayın; bitişik haritalar için yeşil okları kullanın.


METAR-TAF: